MMCP/CPE METAR and TAF weather

Enter ICAO airport designator
Station Type Date Time Source
MMCP METAR 2019/10/15 20:47 UTC NOAA

MMCP 152047Z 12010G20KT 7SM FEW025 SCT080 BKN250 31/25 A2978 RMK SLP072 57022 974 8/468 DSNT CB NE


Station Type Date Time Source
MMCP Decoded METAR 2019/10/15 20:47 UTC NOAA

Campeche, Camp., Mexico (MMCP) 19-51N 090-33W
Oct 15, 2019 - 04:47 PM EDT / 2019.10.15 2047 UTC
Wind: from the ESE (120 degrees) at 12 MPH (10 KT) gusting to 23 MPH (20 KT):0
Visibility: 7 mile(s):0
Sky conditions: mostly cloudy
Weather: Cumulonimbus clouds observed
Temperature: 87 F (31 C)
Heat index: 97.5 F (36.4 C):1
Dew Point: 77 F (25 C)
Relative Humidity: 70%
Pressure (altimeter): 29.78 in. Hg (1008 hPa)
Pressure tendency: 0.06 inches (2.2 hPa) lower than three hours ago
ob: MMCP 152047Z 12010G20KT 7SM FEW025 SCT080 BKN250 31/25 A2978 RMK SLP072 57022 974 8/468 DSNT CB NE
cycle: 21

Station Type Date Time Source
MMCP TAF 2019/10/15 18:34 UTC NOAA

TAF MMCP 151728Z 1518/1618 09015KT 6SM HZ SCT020 SCT300
FM152100 09018KT 6SM HZ BKN020CB BKN100
TEMPO 1521/1601 4SM TSRA
FM160200 12006KT 6SM HZ SCT020 BKN100
BECMG 1612/1613 12010KT

Example: see airport list